sensor_id;sensor_type;location;lat;lon;timestamp;temperature;humidity
84432;DHT22;74658;51.736;7.038;2024-02-28T00:03:07;-0.6;
84432;DHT22;74658;51.736;7.038;2024-02-28T00:08:08;-0.4;
84432;DHT22;74658;51.736;7.038;2024-02-28T00:13:09;-0.4;
84432;DHT22;74658;51.736;7.038;2024-02-28T00:18:09;-0.3;
84432;DHT22;74658;51.736;7.038;2024-02-28T00:23:10;-0.3;
84432;DHT22;74658;51.736;7.038;2024-02-28T00:28:10;-0.2;
84432;DHT22;74658;51.736;7.038;2024-02-28T00:33:11;-0.3;
84432;DHT22;74658;51.736;7.038;2024-02-28T00:38:12;-0.2;
84432;DHT22;74658;51.736;7.038;2024-02-28T00:43:12;-0.2;
84432;DHT22;74658;51.736;7.038;2024-02-28T00:48:14;-0.3;
84432;DHT22;74658;51.736;7.038;2024-02-28T00:53:14;-0.3;
84432;DHT22;74658;51.736;7.038;2024-02-28T00:58:14;-0.4;
84432;DHT22;74658;51.736;7.038;2024-02-28T01:03:15;-0.4;
84432;DHT22;74658;51.736;7.038;2024-02-28T01:08:15;-0.4;
84432;DHT22;74658;51.736;7.038;2024-02-28T01:13:16;-0.3;
84432;DHT22;74658;51.736;7.038;2024-02-28T01:18:16;-0.3;
84432;DHT22;74658;51.736;7.038;2024-02-28T01:23:17;-0.5;
84432;DHT22;74658;51.736;7.038;2024-02-28T01:28:18;-0.7;
84432;DHT22;74658;51.736;7.038;2024-02-28T01:33:19;-0.7;
84432;DHT22;74658;51.736;7.038;2024-02-28T01:38:22;-0.6;
84432;DHT22;74658;51.736;7.038;2024-02-28T01:43:21;-0.8;
84432;DHT22;74658;51.736;7.038;2024-02-28T01:48:22;-0.6;
84432;DHT22;74658;51.736;7.038;2024-02-28T01:53:22;-0.5;
84432;DHT22;74658;51.736;7.038;2024-02-28T01:58:23;-0.7;
84432;DHT22;74658;51.736;7.038;2024-02-28T02:03:23;-0.6;
84432;DHT22;74658;51.736;7.038;2024-02-28T02:08:24;-0.7;
84432;DHT22;74658;51.736;7.038;2024-02-28T02:13:25;-0.8;
84432;DHT22;74658;51.736;7.038;2024-02-28T02:18:26;-0.8;
84432;DHT22;74658;51.736;7.038;2024-02-28T02:23:26;-0.8;
84432;DHT22;74658;51.736;7.038;2024-02-28T02:28:26;-0.7;
84432;DHT22;74658;51.736;7.038;2024-02-28T02:33:27;-0.5;
84432;DHT22;74658;51.736;7.038;2024-02-28T02:38:27;-0.5;
84432;DHT22;74658;51.736;7.038;2024-02-28T02:43:28;-0.4;
84432;DHT22;74658;51.736;7.038;2024-02-28T02:48:29;-0.5;
84432;DHT22;74658;51.736;7.038;2024-02-28T02:53:29;-0.7;
84432;DHT22;74658;51.736;7.038;2024-02-28T02:58:30;-0.5;
84432;DHT22;74658;51.736;7.038;2024-02-28T03:03:31;-0.4;
84432;DHT22;74658;51.736;7.038;2024-02-28T03:08:31;-0.3;
84432;DHT22;74658;51.736;7.038;2024-02-28T03:13:32;-0.3;
84432;DHT22;74658;51.736;7.038;2024-02-28T03:18:32;-0.2;
84432;DHT22;74658;51.736;7.038;2024-02-28T03:23:34;-0.1;
84432;DHT22;74658;51.736;7.038;2024-02-28T03:28:34;0;
84432;DHT22;74658;51.736;7.038;2024-02-28T03:33:34;0;
84432;DHT22;74658;51.736;7.038;2024-02-28T03:38:35;-0.1;
84432;DHT22;74658;51.736;7.038;2024-02-28T03:43:36;0;
84432;DHT22;74658;51.736;7.038;2024-02-28T03:48:36;0;
84432;DHT22;74658;51.736;7.038;2024-02-28T03:53:37;-0.1;
84432;DHT22;74658;51.736;7.038;2024-02-28T03:58:37;-0.1;
84432;DHT22;74658;51.736;7.038;2024-02-28T04:03:38;-0.2;
84432;DHT22;74658;51.736;7.038;2024-02-28T04:08:40;-0.2;
84432;DHT22;74658;51.736;7.038;2024-02-28T04:13:40;-0.2;
84432;DHT22;74658;51.736;7.038;2024-02-28T04:18:40;-0.2;
84432;DHT22;74658;51.736;7.038;2024-02-28T04:23:40;-0.1;
84432;DHT22;74658;51.736;7.038;2024-02-28T04:28:41;0;
84432;DHT22;74658;51.736;7.038;2024-02-28T04:33:42;0;
84432;DHT22;74658;51.736;7.038;2024-02-28T04:38:42;-0.2;
84432;DHT22;74658;51.736;7.038;2024-02-28T04:43:43;0.1;
84432;DHT22;74658;51.736;7.038;2024-02-28T04:48:43;0.2;
84432;DHT22;74658;51.736;7.038;2024-02-28T04:53:44;0.3;
84432;DHT22;74658;51.736;7.038;2024-02-28T04:58:45;0.4;
84432;DHT22;74658;51.736;7.038;2024-02-28T05:03:45;0.4;
84432;DHT22;74658;51.736;7.038;2024-02-28T05:08:46;0.5;
84432;DHT22;74658;51.736;7.038;2024-02-28T05:13:47;0.4;
84432;DHT22;74658;51.736;7.038;2024-02-28T05:18:47;0.5;
84432;DHT22;74658;51.736;7.038;2024-02-28T05:23:48;0.5;
84432;DHT22;74658;51.736;7.038;2024-02-28T05:28:48;0.5;
84432;DHT22;74658;51.736;7.038;2024-02-28T05:33:50;0.6;
84432;DHT22;74658;51.736;7.038;2024-02-28T05:38:51;0.7;
84432;DHT22;74658;51.736;7.038;2024-02-28T05:43:51;0.8;
84432;DHT22;74658;51.736;7.038;2024-02-28T05:48:51;0.8;
84432;DHT22;74658;51.736;7.038;2024-02-28T05:53:51;0.9;
84432;DHT22;74658;51.736;7.038;2024-02-28T05:58:52;0.9;
84432;DHT22;74658;51.736;7.038;2024-02-28T06:03:53;0.8;
84432;DHT22;74658;51.736;7.038;2024-02-28T06:08:53;0.9;
84432;DHT22;74658;51.736;7.038;2024-02-28T06:13:54;0.9;
84432;DHT22;74658;51.736;7.038;2024-02-28T06:18:54;0.9;
84432;DHT22;74658;51.736;7.038;2024-02-28T06:23:55;0.9;
84432;DHT22;74658;51.736;7.038;2024-02-28T06:28:56;0.9;
84432;DHT22;74658;51.736;7.038;2024-02-28T06:33:56;1;
84432;DHT22;74658;51.736;7.038;2024-02-28T06:38:58;1.1;
84432;DHT22;74658;51.736;7.038;2024-02-28T06:43:58;1.1;
84432;DHT22;74658;51.736;7.038;2024-02-28T06:48:58;1.2;
84432;DHT22;74658;51.736;7.038;2024-02-28T06:53:59;1.3;
84432;DHT22;74658;51.736;7.038;2024-02-28T06:58:59;1.5;
84432;DHT22;74658;51.736;7.038;2024-02-28T07:04:00;1.6;
84432;DHT22;74658;51.736;7.038;2024-02-28T07:09:01;1.7;
84432;DHT22;74658;51.736;7.038;2024-02-28T07:14:01;1.8;
84432;DHT22;74658;51.736;7.038;2024-02-28T07:19:02;1.9;
84432;DHT22;74658;51.736;7.038;2024-02-28T07:24:03;2;
84432;DHT22;74658;51.736;7.038;2024-02-28T07:29:03;2;
84432;DHT22;74658;51.736;7.038;2024-02-28T07:34:04;2.1;
84432;DHT22;74658;51.736;7.038;2024-02-28T07:39:04;2.2;
84432;DHT22;74658;51.736;7.038;2024-02-28T07:44:07;2.3;
84432;DHT22;74658;51.736;7.038;2024-02-28T07:49:05;2.3;
84432;DHT22;74658;51.736;7.038;2024-02-28T07:54:06;2.4;
84432;DHT22;74658;51.736;7.038;2024-02-28T07:59:07;2.4;
84432;DHT22;74658;51.736;7.038;2024-02-28T08:04:07;2.5;
84432;DHT22;74658;51.736;7.038;2024-02-28T08:09:08;2.7;
84432;DHT22;74658;51.736;7.038;2024-02-28T08:14:09;2.6;
84432;DHT22;74658;51.736;7.038;2024-02-28T08:19:09;2.7;
84432;DHT22;74658;51.736;7.038;2024-02-28T08:24:10;2.7;
84432;DHT22;74658;51.736;7.038;2024-02-28T08:29:10;2.8;
84432;DHT22;74658;51.736;7.038;2024-02-28T08:34:11;2.8;
84432;DHT22;74658;51.736;7.038;2024-02-28T08:39:12;2.8;
84432;DHT22;74658;51.736;7.038;2024-02-28T08:44:12;3.1;
84432;DHT22;74658;51.736;7.038;2024-02-28T08:49:13;3;
84432;DHT22;74658;51.736;7.038;2024-02-28T08:54:14;3.3;
84432;DHT22;74658;51.736;7.038;2024-02-28T08:59:14;3.3;
84432;DHT22;74658;51.736;7.038;2024-02-28T09:04:15;3.5;
84432;DHT22;74658;51.736;7.038;2024-02-28T09:09:15;3.7;
84432;DHT22;74658;51.736;7.038;2024-02-28T09:14:16;3.6;
84432;DHT22;74658;51.736;7.038;2024-02-28T09:19:16;3.6;
84432;DHT22;74658;51.736;7.038;2024-02-28T09:24:17;3.6;
84432;DHT22;74658;51.736;7.038;2024-02-28T09:29:18;3.6;
84432;DHT22;74658;51.736;7.038;2024-02-28T09:34:18;3.7;
84432;DHT22;74658;51.736;7.038;2024-02-28T09:39:19;3.8;
84432;DHT22;74658;51.736;7.038;2024-02-28T09:44:20;4.1;
84432;DHT22;74658;51.736;7.038;2024-02-28T09:49:21;4.4;
84432;DHT22;74658;51.736;7.038;2024-02-28T09:54:21;4.4;
84432;DHT22;74658;51.736;7.038;2024-02-28T09:59:23;4.5;
84432;DHT22;74658;51.736;7.038;2024-02-28T10:04:23;4.6;
84432;DHT22;74658;51.736;7.038;2024-02-28T10:09:22;4.6;
84432;DHT22;74658;51.736;7.038;2024-02-28T10:14:24;4.7;
84432;DHT22;74658;51.736;7.038;2024-02-28T10:19:24;4.8;
84432;DHT22;74658;51.736;7.038;2024-02-28T10:24:24;5.1;
84432;DHT22;74658;51.736;7.038;2024-02-28T10:29:25;5.2;
84432;DHT22;74658;51.736;7.038;2024-02-28T10:34:25;5.4;
84432;DHT22;74658;51.736;7.038;2024-02-28T10:39:26;5.2;
84432;DHT22;74658;51.736;7.038;2024-02-28T10:44:27;5.4;
84432;DHT22;74658;51.736;7.038;2024-02-28T10:49:27;5.3;
84432;DHT22;74658;51.736;7.038;2024-02-28T10:54:29;5.4;
84432;DHT22;74658;51.736;7.038;2024-02-28T10:59:29;5.8;
84432;DHT22;74658;51.736;7.038;2024-02-28T11:04:29;5.5;
84432;DHT22;74658;51.736;7.038;2024-02-28T11:09:30;5.7;
84432;DHT22;74658;51.736;7.038;2024-02-28T11:14:30;5.5;
84432;DHT22;74658;51.736;7.038;2024-02-28T11:19:33;5.4;
84432;DHT22;74658;51.736;7.038;2024-02-28T11:24:33;5.5;
84432;DHT22;74658;51.736;7.038;2024-02-28T11:29:32;5.7;
84432;DHT22;74658;51.736;7.038;2024-02-28T11:34:34;5.5;
84432;DHT22;74658;51.736;7.038;2024-02-28T11:39:34;5.6;
84432;DHT22;74658;51.736;7.038;2024-02-28T11:44:34;5.9;
84432;DHT22;74658;51.736;7.038;2024-02-28T11:49:35;5.8;
84432;DHT22;74658;51.736;7.038;2024-02-28T11:54:35;5.9;
84432;DHT22;74658;51.736;7.038;2024-02-28T11:59:36;5.9;
84432;DHT22;74658;51.736;7.038;2024-02-28T12:04:36;5.7;
84432;DHT22;74658;51.736;7.038;2024-02-28T12:09:40;6.1;
84432;DHT22;74658;51.736;7.038;2024-02-28T12:14:38;6.2;
84432;DHT22;74658;51.736;7.038;2024-02-28T12:19:38;6.2;
84432;DHT22;74658;51.736;7.038;2024-02-28T12:24:39;5.9;
84432;DHT22;74658;51.736;7.038;2024-02-28T12:29:39;6.2;
84432;DHT22;74658;51.736;7.038;2024-02-28T12:34:40;6.4;
84432;DHT22;74658;51.736;7.038;2024-02-28T12:39:41;6.7;
84432;DHT22;74658;51.736;7.038;2024-02-28T12:44:41;7;
84432;DHT22;74658;51.736;7.038;2024-02-28T12:49:42;6.9;
84432;DHT22;74658;51.736;7.038;2024-02-28T12:54:43;7;
84432;DHT22;74658;51.736;7.038;2024-02-28T12:59:43;7.3;
84432;DHT22;74658;51.736;7.038;2024-02-28T13:04:44;7.5;
84432;DHT22;74658;51.736;7.038;2024-02-28T13:09:48;7.6;
84432;DHT22;74658;51.736;7.038;2024-02-28T13:14:46;7.5;
84432;DHT22;74658;51.736;7.038;2024-02-28T13:19:47;7.5;
84432;DHT22;74658;51.736;7.038;2024-02-28T13:24:47;8;
84432;DHT22;74658;51.736;7.038;2024-02-28T13:29:48;8.3;
84432;DHT22;74658;51.736;7.038;2024-02-28T13:34:48;7.9;
84432;DHT22;74658;51.736;7.038;2024-02-28T13:39:49;8.6;
84432;DHT22;74658;51.736;7.038;2024-02-28T13:44:50;8.1;
84432;DHT22;74658;51.736;7.038;2024-02-28T13:49:50;8.6;
84432;DHT22;74658;51.736;7.038;2024-02-28T13:54:51;8.7;
84432;DHT22;74658;51.736;7.038;2024-02-28T13:59:52;8.8;
84432;DHT22;74658;51.736;7.038;2024-02-28T14:04:53;8.7;
84432;DHT22;74658;51.736;7.038;2024-02-28T14:09:53;8.7;
84432;DHT22;74658;51.736;7.038;2024-02-28T14:14:54;8.6;
84432;DHT22;74658;51.736;7.038;2024-02-28T14:19:54;8.4;
84432;DHT22;74658;51.736;7.038;2024-02-28T14:24:55;8.4;
84432;DHT22;74658;51.736;7.038;2024-02-28T14:29:55;8.3;
84432;DHT22;74658;51.736;7.038;2024-02-28T14:34:56;8.3;
84432;DHT22;74658;51.736;7.038;2024-02-28T14:39:57;8.5;
84432;DHT22;74658;51.736;7.038;2024-02-28T14:44:57;8.6;
84432;DHT22;74658;51.736;7.038;2024-02-28T14:49:58;8.4;
84432;DHT22;74658;51.736;7.038;2024-02-28T14:54:58;8.4;
84432;DHT22;74658;51.736;7.038;2024-02-28T14:59:59;8.3;
84432;DHT22;74658;51.736;7.038;2024-02-28T15:05:03;8.3;
84432;DHT22;74658;51.736;7.038;2024-02-28T15:10:01;8.2;
84432;DHT22;74658;51.736;7.038;2024-02-28T15:15:03;8.1;
84432;DHT22;74658;51.736;7.038;2024-02-28T15:20:03;8.1;
84432;DHT22;74658;51.736;7.038;2024-02-28T15:20:03;8.1;
84432;DHT22;74658;51.736;7.038;2024-02-28T15:25:04;8;
84432;DHT22;74658;51.736;7.038;2024-02-28T15:30:05;8;
84432;DHT22;74658;51.736;7.038;2024-02-28T15:35:04;7.9;
84432;DHT22;74658;51.736;7.038;2024-02-28T15:40:06;7.8;
84432;DHT22;74658;51.736;7.038;2024-02-28T15:45:06;7.8;
84432;DHT22;74658;51.736;7.038;2024-02-28T15:50:07;7.7;
84432;DHT22;74658;51.736;7.038;2024-02-28T15:55:08;7.7;
84432;DHT22;74658;51.736;7.038;2024-02-28T16:00:08;7.6;
84432;DHT22;74658;51.736;7.038;2024-02-28T16:05:08;7.7;
84432;DHT22;74658;51.736;7.038;2024-02-28T16:10:09;7.7;
84432;DHT22;74658;51.736;7.038;2024-02-28T16:15:09;7.8;
84432;DHT22;74658;51.736;7.038;2024-02-28T16:20:10;7.8;
84432;DHT22;74658;51.736;7.038;2024-02-28T16:25:13;7.9;
84432;DHT22;74658;51.736;7.038;2024-02-28T16:30:12;7.8;
84432;DHT22;74658;51.736;7.038;2024-02-28T16:35:12;7.8;
84432;DHT22;74658;51.736;7.038;2024-02-28T16:40:12;7.8;
84432;DHT22;74658;51.736;7.038;2024-02-28T16:45:13;7.8;
84432;DHT22;74658;51.736;7.038;2024-02-28T16:50:14;7.7;
84432;DHT22;74658;51.736;7.038;2024-02-28T16:55:14;7.6;
84432;DHT22;74658;51.736;7.038;2024-02-28T17:00:16;7.3;
84432;DHT22;74658;51.736;7.038;2024-02-28T17:05:16;7.2;
84432;DHT22;74658;51.736;7.038;2024-02-28T17:10:19;7;
84432;DHT22;74658;51.736;7.038;2024-02-28T17:15:18;6.7;
84432;DHT22;74658;51.736;7.038;2024-02-28T17:20:18;6.5;
84432;DHT22;74658;51.736;7.038;2024-02-28T17:25:19;6.2;
84432;DHT22;74658;51.736;7.038;2024-02-28T17:30:20;6;
84432;DHT22;74658;51.736;7.038;2024-02-28T17:35:20;5.9;
84432;DHT22;74658;51.736;7.038;2024-02-28T17:40:21;5.8;
84432;DHT22;74658;51.736;7.038;2024-02-28T17:45:21;5.7;
84432;DHT22;74658;51.736;7.038;2024-02-28T17:50:22;5.5;
84432;DHT22;74658;51.736;7.038;2024-02-28T17:55:23;5.3;
84432;DHT22;74658;51.736;7.038;2024-02-28T18:00:23;5.1;
84432;DHT22;74658;51.736;7.038;2024-02-28T18:05:24;5;
84432;DHT22;74658;51.736;7.038;2024-02-28T18:10:25;5;
84432;DHT22;74658;51.736;7.038;2024-02-28T18:15:25;5;
84432;DHT22;74658;51.736;7.038;2024-02-28T18:20:26;5;
84432;DHT22;74658;51.736;7.038;2024-02-28T18:25:27;4.9;
84432;DHT22;74658;51.736;7.038;2024-02-28T18:30:27;5;
84432;DHT22;74658;51.736;7.038;2024-02-28T18:35:29;5;
84432;DHT22;74658;51.736;7.038;2024-02-28T18:40:28;5;
84432;DHT22;74658;51.736;7.038;2024-02-28T18:45:29;5;
84432;DHT22;74658;51.736;7.038;2024-02-28T18:50:29;5;
84432;DHT22;74658;51.736;7.038;2024-02-28T18:55:30;5;
84432;DHT22;74658;51.736;7.038;2024-02-28T19:00:30;5;
84432;DHT22;74658;51.736;7.038;2024-02-28T19:05:31;5;
84432;DHT22;74658;51.736;7.038;2024-02-28T19:10:32;4.9;
84432;DHT22;74658;51.736;7.038;2024-02-28T19:15:32;4.9;
84432;DHT22;74658;51.736;7.038;2024-02-28T19:20:33;4.9;
84432;DHT22;74658;51.736;7.038;2024-02-28T19:25:34;5;
84432;DHT22;74658;51.736;7.038;2024-02-28T19:30:34;5;
84432;DHT22;74658;51.736;7.038;2024-02-28T19:35:35;5;
84432;DHT22;74658;51.736;7.038;2024-02-28T19:40:35;5.1;
84432;DHT22;74658;51.736;7.038;2024-02-28T19:45:36;5.1;
84432;DHT22;74658;51.736;7.038;2024-02-28T19:50:36;5.2;
84432;DHT22;74658;51.736;7.038;2024-02-28T19:55:39;5.2;
84432;DHT22;74658;51.736;7.038;2024-02-28T20:00:38;5.2;
84432;DHT22;74658;51.736;7.038;2024-02-28T20:05:38;5.2;
84432;DHT22;74658;51.736;7.038;2024-02-28T20:10:39;5.2;
84432;DHT22;74658;51.736;7.038;2024-02-28T20:15:39;5.2;
84432;DHT22;74658;51.736;7.038;2024-02-28T20:20:40;5.1;
84432;DHT22;74658;51.736;7.038;2024-02-28T20:25:41;5.1;
84432;DHT22;74658;51.736;7.038;2024-02-28T20:30:41;4.9;
84432;DHT22;74658;51.736;7.038;2024-02-28T20:35:42;4.9;
84432;DHT22;74658;51.736;7.038;2024-02-28T20:40:43;4.7;
84432;DHT22;74658;51.736;7.038;2024-02-28T20:45:45;4.6;
84432;DHT22;74658;51.736;7.038;2024-02-28T20:50:44;4.5;
84432;DHT22;74658;51.736;7.038;2024-02-28T20:55:44;4.3;
84432;DHT22;74658;51.736;7.038;2024-02-28T21:00:45;4.3;
84432;DHT22;74658;51.736;7.038;2024-02-28T21:05:46;4.2;
84432;DHT22;74658;51.736;7.038;2024-02-28T21:10:46;4.1;
84432;DHT22;74658;51.736;7.038;2024-02-28T21:15:47;3.9;
84432;DHT22;74658;51.736;7.038;2024-02-28T21:20:47;3.8;
84432;DHT22;74658;51.736;7.038;2024-02-28T21:25:48;3.7;
84432;DHT22;74658;51.736;7.038;2024-02-28T21:30:48;3.6;
84432;DHT22;74658;51.736;7.038;2024-02-28T21:35:49;3.5;
84432;DHT22;74658;51.736;7.038;2024-02-28T21:40:50;3.4;
84432;DHT22;74658;51.736;7.038;2024-02-28T21:45:50;3.4;
84432;DHT22;74658;51.736;7.038;2024-02-28T21:50:51;3.3;
84432;DHT22;74658;51.736;7.038;2024-02-28T21:55:51;3.3;
84432;DHT22;74658;51.736;7.038;2024-02-28T22:00:52;3.1;
84432;DHT22;74658;51.736;7.038;2024-02-28T22:05:53;3;
84432;DHT22;74658;51.736;7.038;2024-02-28T22:10:53;2.9;
84432;DHT22;74658;51.736;7.038;2024-02-28T22:15:54;2.8;
84432;DHT22;74658;51.736;7.038;2024-02-28T22:20:54;2.8;
84432;DHT22;74658;51.736;7.038;2024-02-28T22:25:56;2.7;
84432;DHT22;74658;51.736;7.038;2024-02-28T22:30:56;2.6;
84432;DHT22;74658;51.736;7.038;2024-02-28T22:35:56;2.6;
84432;DHT22;74658;51.736;7.038;2024-02-28T22:40:57;2.6;
84432;DHT22;74658;51.736;7.038;2024-02-28T22:45:58;2.5;
84432;DHT22;74658;51.736;7.038;2024-02-28T22:50:58;2.5;
84432;DHT22;74658;51.736;7.038;2024-02-28T22:55:59;2.5;
84432;DHT22;74658;51.736;7.038;2024-02-28T23:00:59;2.5;
84432;DHT22;74658;51.736;7.038;2024-02-28T23:06:00;2.4;
84432;DHT22;74658;51.736;7.038;2024-02-28T23:11:00;2.4;
84432;DHT22;74658;51.736;7.038;2024-02-28T23:16:01;2.4;
84432;DHT22;74658;51.736;7.038;2024-02-28T23:21:02;2.3;
84432;DHT22;74658;51.736;7.038;2024-02-28T23:26:02;2.2;
84432;DHT22;74658;51.736;7.038;2024-02-28T23:31:03;2.2;
84432;DHT22;74658;51.736;7.038;2024-02-28T23:36:04;2.1;
84432;DHT22;74658;51.736;7.038;2024-02-28T23:41:04;2.1;
84432;DHT22;74658;51.736;7.038;2024-02-28T23:46:05;2;
84432;DHT22;74658;51.736;7.038;2024-02-28T23:51:05;2;
84432;DHT22;74658;51.736;7.038;2024-02-28T23:56:06;2.1;
